createdAt,value
2023-05-01T00:00:20.479Z,70.75
2023-05-01T00:03:05.414Z,70.55
2023-05-01T00:05:50.453Z,70.14
2023-05-01T00:08:35.550Z,70.42
2023-05-01T00:11:20.613Z,70.42
2023-05-01T00:14:05.468Z,70.48
2023-05-01T00:16:50.581Z,71.07
2023-05-01T00:19:35.603Z,70.92
2023-05-01T00:22:20.644Z,71.41
2023-05-01T00:25:05.621Z,71.78
2023-05-01T00:27:50.588Z,71.83
2023-05-01T00:30:35.742Z,72.70
2023-05-01T00:33:20.717Z,72.32
2023-05-01T00:36:05.770Z,72.27
2023-05-01T00:38:50.755Z,71.26
2023-05-01T00:41:35.821Z,71.89
2023-05-01T00:44:20.796Z,71.90
2023-05-01T00:47:05.688Z,70.19
2023-05-01T00:49:50.690Z,70.38
2023-05-01T00:52:35.617Z,70.34
2023-05-01T00:55:20.747Z,70.12
2023-05-01T00:58:05.665Z,70.10
2023-05-01T01:00:50.833Z,70.30
2023-05-01T01:03:35.727Z,69.90
2023-05-01T01:06:20.768Z,70.70
2023-05-01T01:09:05.717Z,70.04
2023-05-01T01:11:50.620Z,69.77
2023-05-01T01:14:35.699Z,69.48
2023-05-01T01:17:20.757Z,70.12
2023-05-01T01:20:05.861Z,69.29
2023-05-01T01:22:50.761Z,68.83
2023-05-01T01:25:35.850Z,68.82
2023-05-01T01:28:20.802Z,69.69
2023-05-01T01:31:06.054Z,69.22
2023-05-01T01:33:50.953Z,69.46
2023-05-01T01:36:35.823Z,70.48
2023-05-01T01:39:21.014Z,71.54
2023-05-01T01:42:05.948Z,71.88
2023-05-01T01:44:51.088Z,72.08
2023-05-01T01:47:35.966Z,71.64
2023-05-01T01:50:20.992Z,71.57
2023-05-01T01:53:05.955Z,71.77
2023-05-01T01:55:50.898Z,71.93
2023-05-01T01:58:35.991Z,70.10
2023-05-01T02:01:20.998Z,69.23
2023-05-01T02:04:06.034Z,67.58
2023-05-01T02:06:50.981Z,66.61
2023-05-01T02:09:35.787Z,65.00
2023-05-01T02:12:20.801Z,63.94
2023-05-01T02:15:05.787Z,63.49
2023-05-01T02:17:50.698Z,63.31
2023-05-01T02:20:35.637Z,62.75
2023-05-01T02:23:20.729Z,63.30
2023-05-01T02:26:05.686Z,63.68
2023-05-01T02:28:50.716Z,64.37
2023-05-01T02:31:35.772Z,63.80
2023-05-01T02:34:20.809Z,63.63
2023-05-01T02:37:05.635Z,63.44
2023-05-01T02:39:50.626Z,62.93
2023-05-01T02:42:35.639Z,62.96
2023-05-01T02:45:20.720Z,62.14
2023-05-01T02:48:05.649Z,62.86
2023-05-01T02:50:50.628Z,63.12
2023-05-01T02:53:35.589Z,63.74
2023-05-01T02:56:20.477Z,63.93
2023-05-01T02:59:05.647Z,63.53
2023-05-01T03:01:50.580Z,64.21
2023-05-01T03:04:35.757Z,63.77
2023-05-01T03:07:20.662Z,64.21
2023-05-01T03:10:05.639Z,63.63
2023-05-01T03:12:50.622Z,63.23
2023-05-01T03:15:35.524Z,62.71
2023-05-01T03:18:20.700Z,62.31
2023-05-01T03:21:05.704Z,62.59
2023-05-01T03:23:50.772Z,62.52
2023-05-01T03:26:37.698Z,62.65
2023-05-01T03:29:22.743Z,63.07
2023-05-01T03:32:07.902Z,63.69
2023-05-01T03:34:53.358Z,64.39
2023-05-01T03:37:38.252Z,63.82
2023-05-01T03:40:23.322Z,63.93
2023-05-01T03:43:08.367Z,63.35
2023-05-01T03:45:53.502Z,63.40
2023-05-01T03:48:38.525Z,64.65
2023-05-01T03:51:23.732Z,64.84
2023-05-01T03:54:08.779Z,63.44
2023-05-01T03:56:53.875Z,63.83
2023-05-01T03:59:38.844Z,63.21
2023-05-01T04:02:24.005Z,64.67
2023-05-01T04:05:09.033Z,64.38
2023-05-01T04:07:54.002Z,62.14
2023-05-01T04:10:39.083Z,63.12
2023-05-01T04:13:24.067Z,64.20
2023-05-01T04:16:09.185Z,64.72
2023-05-01T04:18:54.105Z,65.53
2023-05-01T04:21:39.239Z,65.52
2023-05-01T04:24:24.136Z,64.53
2023-05-01T04:27:09.126Z,64.68
2023-05-01T04:29:54.332Z,63.87
2023-05-01T04:32:39.475Z,63.83
2023-05-01T04:35:24.425Z,65.39
2023-05-01T04:38:09.387Z,66.23
2023-05-01T04:40:54.668Z,66.44
2023-05-01T04:43:39.462Z,65.29
2023-05-01T04:46:24.566Z,65.05
2023-05-01T04:49:10.553Z,64.30
2023-05-01T04:51:55.128Z,65.01
2023-05-01T04:54:40.196Z,64.00
2023-05-01T04:57:25.179Z,65.03
2023-05-01T05:00:10.482Z,65.29
2023-05-01T05:02:55.547Z,65.85
2023-05-01T05:05:40.598Z,65.54
2023-05-01T05:08:25.624Z,65.88
2023-05-01T05:11:10.538Z,66.50
2023-05-01T05:13:55.558Z,65.30
2023-05-01T05:16:40.539Z,64.15
2023-05-01T05:19:25.784Z,64.70
2023-05-01T05:22:10.793Z,65.52
2023-05-01T05:24:55.741Z,65.53
2023-05-01T05:27:40.667Z,65.99
2023-05-01T05:30:25.806Z,65.45
2023-05-01T05:33:10.826Z,65.66
2023-05-01T05:35:55.866Z,66.59
2023-05-01T05:38:41.050Z,67.09
2023-05-01T05:41:25.941Z,66.44
2023-05-01T05:44:11.106Z,66.35
2023-05-01T05:46:55.967Z,65.03
2023-05-01T05:49:40.995Z,65.67
2023-05-01T05:52:25.977Z,65.49
2023-05-01T05:55:11.518Z,67.16
2023-05-01T05:57:56.465Z,67.14
2023-05-01T06:00:43.511Z,66.88
2023-05-01T06:03:28.627Z,66.04
2023-05-01T06:06:13.578Z,66.50
2023-05-01T06:08:58.622Z,67.11
2023-05-01T06:11:43.727Z,66.52
2023-05-01T06:14:28.720Z,65.66
2023-05-01T06:17:13.786Z,65.39
2023-05-01T06:19:58.926Z,65.63
2023-05-01T06:22:43.872Z,65.64
2023-05-01T06:25:28.651Z,65.07
2023-05-01T06:28:13.705Z,64.94
2023-05-01T06:30:58.794Z,64.44
2023-05-01T06:33:43.737Z,63.96
2023-05-01T06:36:28.880Z,63.71
2023-05-01T06:39:13.888Z,63.90
2023-05-01T06:41:58.901Z,63.48
2023-05-01T06:44:43.790Z,63.31
2023-05-01T06:47:28.804Z,63.05
2023-05-01T06:50:13.695Z,61.94
2023-05-01T06:52:58.781Z,61.72
2023-05-01T06:55:43.803Z,62.18
2023-05-01T06:58:28.845Z,62.07
2023-05-01T07:01:13.973Z,61.00
2023-05-01T07:03:59.037Z,61.23
2023-05-01T07:06:44.174Z,61.84
2023-05-01T07:09:28.946Z,61.33
2023-05-01T07:12:13.999Z,61.08
2023-05-01T07:14:59.064Z,61.19
2023-05-01T07:17:44.140Z,61.69
2023-05-01T07:20:29.218Z,61.18
2023-05-01T07:23:14.146Z,61.72
2023-05-01T07:25:59.317Z,61.84
2023-05-01T07:28:44.190Z,60.91
2023-05-01T07:31:29.213Z,60.86
2023-05-01T07:34:14.202Z,61.08
2023-05-01T07:36:59.124Z,59.62
2023-05-01T07:39:44.005Z,61.43
2023-05-01T07:42:29.007Z,61.47
2023-05-01T07:45:14.022Z,61.41
2023-05-01T07:47:58.966Z,60.66
2023-05-01T07:50:43.992Z,60.55
2023-05-01T07:53:28.964Z,60.82
2023-05-01T07:56:13.970Z,60.57
2023-05-01T07:58:58.942Z,61.05
2023-05-01T08:01:43.934Z,61.72
2023-05-01T08:04:28.892Z,62.11
2023-05-01T08:07:17.036Z,62.01
2023-05-01T08:10:02.301Z,62.54
2023-05-01T08:12:47.503Z,62.68
2023-05-01T08:15:32.510Z,62.42
2023-05-01T08:18:17.476Z,61.63
2023-05-01T08:21:02.554Z,62.62
2023-05-01T08:23:47.607Z,62.25
2023-05-01T08:26:32.579Z,60.35
2023-05-01T08:29:17.623Z,61.10
2023-05-01T08:32:04.640Z,60.57
2023-05-01T08:34:49.669Z,60.54
2023-05-01T08:37:34.688Z,62.42
2023-05-01T08:40:19.667Z,61.09
2023-05-01T08:43:04.748Z,61.73
2023-05-01T08:45:49.696Z,61.75
2023-05-01T08:48:34.809Z,62.13
2023-05-01T08:51:21.087Z,61.39
2023-05-01T08:54:06.188Z,61.76
2023-05-01T08:56:51.263Z,61.72
2023-05-01T08:59:36.158Z,62.74
2023-05-01T09:02:21.290Z,62.53
2023-05-01T09:05:06.248Z,63.68
2023-05-01T09:07:51.265Z,63.81
2023-05-01T09:10:36.109Z,64.08
2023-05-01T09:13:21.111Z,63.27
2023-05-01T09:16:06.162Z,63.34
2023-05-01T09:18:51.071Z,63.91
2023-05-01T09:21:36.310Z,62.06
2023-05-01T09:24:21.381Z,62.79
2023-05-01T09:27:06.557Z,61.62
2023-05-01T09:29:51.560Z,61.62
2023-05-01T09:32:36.650Z,60.46
2023-05-01T09:35:21.534Z,60.65
2023-05-01T09:38:06.563Z,60.92
2023-05-01T09:40:51.644Z,61.89
2023-05-01T09:43:36.676Z,62.85
2023-05-01T09:46:21.909Z,62.08
2023-05-01T09:49:06.683Z,62.99
2023-05-01T09:51:51.856Z,62.81
2023-05-01T09:54:36.754Z,62.96
2023-05-01T09:57:21.866Z,61.81
2023-05-01T10:00:06.940Z,61.64
2023-05-01T10:02:52.007Z,61.42
2023-05-01T10:05:37.076Z,60.39
2023-05-01T10:08:22.021Z,60.83
2023-05-01T10:11:07.200Z,61.52
2023-05-01T10:13:52.200Z,61.36
2023-05-01T10:16:37.353Z,61.51
2023-05-01T10:19:22.306Z,61.60
2023-05-01T10:22:07.221Z,61.63
2023-05-01T10:24:52.260Z,62.18
2023-05-01T10:27:37.162Z,61.73
2023-05-01T10:30:22.215Z,60.82
2023-05-01T10:33:07.219Z,60.32
2023-05-01T10:35:52.141Z,60.22
2023-05-01T10:38:37.149Z,62.06
2023-05-01T10:41:22.345Z,61.55
2023-05-01T10:44:07.354Z,61.97
2023-05-01T10:46:52.247Z,60.42
2023-05-01T10:49:37.316Z,60.96
2023-05-01T10:52:22.223Z,59.47
2023-05-01T10:55:07.454Z,59.45
2023-05-01T10:57:52.455Z,60.54
2023-05-01T11:00:37.415Z,60.73
2023-05-01T11:03:22.435Z,60.50
2023-05-01T11:06:07.532Z,60.72
2023-05-01T11:08:52.483Z,60.61
2023-05-01T11:11:37.472Z,59.95
2023-05-01T11:14:22.757Z,60.91
2023-05-01T11:17:07.715Z,60.91
2023-05-01T11:19:52.781Z,60.02
2023-05-01T11:22:37.628Z,60.13
2023-05-01T11:25:22.832Z,60.08
2023-05-01T11:28:07.856Z,61.22
2023-05-01T11:30:52.884Z,59.78
2023-05-01T11:33:37.923Z,60.28
2023-05-01T11:36:22.873Z,59.92
2023-05-01T11:39:07.940Z,58.21
2023-05-01T11:41:52.875Z,57.93
2023-05-01T11:44:38.060Z,56.76
2023-05-01T11:47:23.117Z,55.85
2023-05-01T11:50:08.030Z,56.43
2023-05-01T11:52:52.949Z,53.91
2023-05-01T11:55:37.878Z,55.41
2023-05-01T11:58:23.059Z,54.96
2023-05-01T12:01:07.935Z,55.85
2023-05-01T12:03:53.055Z,56.64
2023-05-01T12:06:38.008Z,57.48
2023-05-01T12:09:23.018Z,57.60
2023-05-01T12:12:07.914Z,57.20
2023-05-01T12:14:52.876Z,57.81
2023-05-01T12:17:37.861Z,58.26
2023-05-01T12:20:22.802Z,57.25
2023-05-01T12:23:08.014Z,56.69
2023-05-01T12:25:53.064Z,57.26
2023-05-01T12:28:38.152Z,55.29
2023-05-01T12:31:23.217Z,55.98
2023-05-01T12:34:08.308Z,55.17
2023-05-01T12:36:53.133Z,56.67
2023-05-01T12:39:38.089Z,57.49
2023-05-01T12:42:23.167Z,57.58
2023-05-01T12:45:08.039Z,58.39
2023-05-01T12:47:53.021Z,57.08
2023-05-01T12:50:37.980Z,56.17
2023-05-01T12:53:23.158Z,56.54
2023-05-01T12:56:08.078Z,56.54
2023-05-01T12:58:53.043Z,58.12
2023-05-01T13:01:38.200Z,59.32
2023-05-01T13:04:23.327Z,57.46
2023-05-01T13:07:08.225Z,57.63
2023-05-01T13:09:53.127Z,58.74
2023-05-01T13:12:38.258Z,56.23
2023-05-01T13:15:23.165Z,58.43
2023-05-01T13:18:08.420Z,62.35
2023-05-01T13:20:53.483Z,61.70
2023-05-01T13:23:38.595Z,60.20
2023-05-01T13:26:23.524Z,62.12
2023-05-01T13:29:08.476Z,62.05
2023-05-01T13:31:53.643Z,61.63
2023-05-01T13:34:38.589Z,62.62
2023-05-01T13:37:23.635Z,65.79
2023-05-01T13:40:08.607Z,64.40
2023-05-01T13:42:53.673Z,63.41
2023-05-01T13:45:38.790Z,64.83
2023-05-01T13:48:23.752Z,62.66
2023-05-01T13:51:08.776Z,64.72
2023-05-01T13:53:54.253Z,63.40
2023-05-01T13:56:39.384Z,61.90
2023-05-01T13:59:24.436Z,61.51
2023-05-01T14:02:09.605Z,62.72
2023-05-01T14:04:54.600Z,62.84
2023-05-01T14:07:39.458Z,61.83
2023-05-01T14:10:24.601Z,63.97
2023-05-01T14:13:09.593Z,63.28
2023-05-01T14:15:54.863Z,63.26
2023-05-01T14:18:39.829Z,63.42
2023-05-01T14:21:24.956Z,63.24
2023-05-01T14:24:09.922Z,65.24
2023-05-01T14:26:54.900Z,65.11
2023-05-01T14:29:40.060Z,65.82
2023-05-01T14:32:25.054Z,65.02
2023-05-01T14:35:10.183Z,66.06
2023-05-01T14:37:55.153Z,66.32
2023-05-01T14:40:40.147Z,66.82
2023-05-01T14:43:25.141Z,65.73
2023-05-01T14:46:10.191Z,66.04
2023-05-01T14:48:55.236Z,65.96
2023-05-01T14:51:40.057Z,68.32
2023-05-01T14:54:25.251Z,64.37
2023-05-01T14:57:10.144Z,67.38
2023-05-01T14:59:55.114Z,66.84
2023-05-01T15:02:40.174Z,68.26
2023-05-01T15:05:25.127Z,66.95
2023-05-01T15:08:10.090Z,66.04
2023-05-01T15:10:55.037Z,68.46
2023-05-01T15:13:39.990Z,68.97
2023-05-01T15:16:24.986Z,69.14
2023-05-01T15:19:09.953Z,69.19
2023-05-01T15:21:54.959Z,66.98
2023-05-01T15:24:40.024Z,68.36
2023-05-01T15:27:25.018Z,68.21
2023-05-01T15:30:09.981Z,65.88
2023-05-01T15:32:54.964Z,68.04
2023-05-01T15:35:40.023Z,67.84
2023-05-01T15:38:25.047Z,68.29
2023-05-01T15:41:09.890Z,67.99
2023-05-01T15:43:55.147Z,67.86
2023-05-01T15:46:40.058Z,68.43
2023-05-01T15:49:24.929Z,67.42
2023-05-01T15:52:09.954Z,66.51
2023-05-01T15:54:54.909Z,66.20
2023-05-01T15:57:39.888Z,66.76
2023-05-01T16:00:24.751Z,69.59
2023-05-01T16:03:09.875Z,67.98
2023-05-01T16:05:54.740Z,67.19
2023-05-01T16:08:39.751Z,67.88
2023-05-01T16:11:24.595Z,67.92
2023-05-01T16:14:10.008Z,66.55
2023-05-01T16:16:54.844Z,66.04
2023-05-01T16:19:39.751Z,64.46
2023-05-01T16:22:24.900Z,63.30
2023-05-01T16:25:09.774Z,63.39
2023-05-01T16:27:54.781Z,63.66
2023-05-01T16:30:39.754Z,62.16
2023-05-01T16:33:24.912Z,65.24
2023-05-01T16:36:09.862Z,64.83
2023-05-01T16:38:54.860Z,63.91
2023-05-01T16:41:39.781Z,65.15
2023-05-01T16:44:24.733Z,66.64
2023-05-01T16:47:09.797Z,66.35
2023-05-01T16:49:54.708Z,66.35
2023-05-01T16:52:39.861Z,67.82
2023-05-01T16:55:24.664Z,69.20
2023-05-01T16:58:09.843Z,69.66
2023-05-01T17:00:54.842Z,70.22
2023-05-01T17:03:39.966Z,70.78
2023-05-01T17:06:24.959Z,71.89
2023-05-01T17:09:09.790Z,72.42
2023-05-01T17:11:54.860Z,72.45
2023-05-01T17:14:39.829Z,73.42
2023-05-01T17:17:25.020Z,72.33
2023-05-01T17:20:10.010Z,71.89
2023-05-01T17:22:55.271Z,70.95
2023-05-01T17:25:40.327Z,71.78
2023-05-01T17:28:25.314Z,70.93
2023-05-01T17:31:10.359Z,69.98
2023-05-01T17:33:55.333Z,69.97
2023-05-01T17:36:40.499Z,69.68
2023-05-01T17:39:25.478Z,69.39
2023-05-01T17:42:10.618Z,69.04
2023-05-01T17:44:55.479Z,69.05
2023-05-01T17:47:40.588Z,69.28
2023-05-01T17:50:25.406Z,67.99
2023-05-01T17:53:10.475Z,68.39
2023-05-01T17:55:55.659Z,69.13
2023-05-01T17:58:40.685Z,68.80
2023-05-01T18:01:25.740Z,69.11
2023-05-01T18:04:10.949Z,69.22
2023-05-01T18:06:56.455Z,68.86
2023-05-01T18:09:41.414Z,68.83
2023-05-01T18:12:26.406Z,69.17
2023-05-01T18:15:11.396Z,68.93
2023-05-01T18:17:56.359Z,69.06
2023-05-01T18:20:41.511Z,68.28
2023-05-01T18:23:26.471Z,67.92
2023-05-01T18:26:11.445Z,66.84
2023-05-01T18:28:56.411Z,66.20
2023-05-01T18:31:41.722Z,66.65
2023-05-01T18:34:26.622Z,66.38
2023-05-01T18:37:11.630Z,66.54
2023-05-01T18:39:57.097Z,66.75
2023-05-01T18:42:42.288Z,66.46
2023-05-01T18:45:27.379Z,66.92
2023-05-01T18:48:12.395Z,66.38
2023-05-01T18:51:07.181Z,66.22
2023-05-01T18:53:53.419Z,66.65
2023-05-01T18:56:38.304Z,66.65
2023-05-01T18:59:23.175Z,67.54
2023-05-01T19:02:08.200Z,67.06
2023-05-01T19:04:57.821Z,65.52
2023-05-01T19:07:42.908Z,64.68
2023-05-01T19:10:27.968Z,64.83
2023-05-01T19:13:13.048Z,65.29
2023-05-01T19:15:58.171Z,65.31
2023-05-01T19:18:43.208Z,65.58
2023-05-01T19:21:28.208Z,65.45
2023-05-01T19:24:13.406Z,65.59
2023-05-01T19:26:58.325Z,65.37
2023-05-01T19:29:43.336Z,66.49
2023-05-01T19:32:28.334Z,66.21
2023-05-01T19:35:13.420Z,65.03
2023-05-01T19:37:58.369Z,64.68
2023-05-01T19:40:43.284Z,64.59
2023-05-01T19:43:28.362Z,64.12
2023-05-01T19:46:13.191Z,63.74
2023-05-01T19:48:58.292Z,62.99
2023-05-01T19:51:43.324Z,63.37
2023-05-01T19:54:28.533Z,62.85
2023-05-01T19:57:13.526Z,63.62
2023-05-01T19:59:59.039Z,63.66
2023-05-01T20:02:44.327Z,63.24
2023-05-01T20:05:29.140Z,63.66
2023-05-01T20:08:14.291Z,62.66
2023-05-01T20:10:59.145Z,61.20
2023-05-01T20:13:44.263Z,62.32
2023-05-01T20:16:29.303Z,63.37
2023-05-01T20:19:14.431Z,63.92
2023-05-01T20:21:59.367Z,65.35
2023-05-01T20:24:44.380Z,65.59
2023-05-01T20:27:29.369Z,64.48
2023-05-01T20:30:14.416Z,65.78
2023-05-01T20:32:59.655Z,65.23
2023-05-01T20:35:44.574Z,63.95
2023-05-01T20:38:29.791Z,64.48
2023-05-01T20:41:14.730Z,65.22
2023-05-01T20:43:59.907Z,65.26
2023-05-01T20:46:45.219Z,66.38
2023-05-01T20:49:29.897Z,65.48
2023-05-01T20:52:14.899Z,66.65
2023-05-01T20:54:59.857Z,66.79
2023-05-01T20:57:45.017Z,66.66
2023-05-01T21:00:30.001Z,66.05
2023-05-01T21:03:15.350Z,66.69
2023-05-01T21:06:00.683Z,66.51
2023-05-01T21:08:45.582Z,66.63
2023-05-01T21:11:30.752Z,66.63
2023-05-01T21:14:15.730Z,65.49
2023-05-01T21:17:00.892Z,64.38
2023-05-01T21:19:45.805Z,64.10
2023-05-01T21:22:30.997Z,63.29
2023-05-01T21:25:15.827Z,63.64
2023-05-01T21:28:00.847Z,63.30
2023-05-01T21:30:45.809Z,63.30
2023-05-01T21:33:30.744Z,64.13
2023-05-01T21:36:15.830Z,64.74
2023-05-01T21:39:00.768Z,65.85
2023-05-01T21:41:45.854Z,65.76
2023-05-01T21:44:30.844Z,64.82
2023-05-01T21:47:15.976Z,64.35
2023-05-01T21:50:01.064Z,63.95
2023-05-01T21:52:46.277Z,63.65
2023-05-01T21:55:31.277Z,62.68
2023-05-01T21:58:16.152Z,62.83
2023-05-01T22:01:01.249Z,61.94
2023-05-01T22:03:46.290Z,61.54
2023-05-01T22:06:31.318Z,62.29
2023-05-01T22:09:16.110Z,61.92
2023-05-01T22:12:01.036Z,62.31
2023-05-01T22:14:47.528Z,62.74
2023-05-01T22:17:32.283Z,63.78
2023-05-01T22:20:17.400Z,62.88
2023-05-01T22:23:02.350Z,63.61
2023-05-01T22:25:47.358Z,63.97
2023-05-01T22:28:32.339Z,64.17
2023-05-01T22:31:17.413Z,63.75
2023-05-01T22:34:02.210Z,63.21
2023-05-01T22:36:47.075Z,63.15
2023-05-01T22:39:32.253Z,64.09
2023-05-01T22:42:17.191Z,64.41
2023-05-01T22:45:02.208Z,64.31
2023-05-01T22:47:47.157Z,64.20
2023-05-01T22:50:32.162Z,65.16
2023-05-01T22:53:17.283Z,64.85
2023-05-01T22:56:02.225Z,64.68
2023-05-01T22:58:47.426Z,63.49
2023-05-01T23:01:32.368Z,64.27
2023-05-01T23:04:17.551Z,63.36
2023-05-01T23:07:02.266Z,63.56
2023-05-01T23:09:47.262Z,61.99
2023-05-01T23:12:32.204Z,63.71
2023-05-01T23:15:17.264Z,63.35
2023-05-01T23:18:02.276Z,63.83
2023-05-01T23:20:47.170Z,65.19
2023-05-01T23:23:32.159Z,64.28
2023-05-01T23:26:17.027Z,64.14
2023-05-01T23:29:02.151Z,64.29
2023-05-01T23:31:47.378Z,64.69
2023-05-01T23:34:32.622Z,65.78
2023-05-01T23:37:17.544Z,65.57
2023-05-01T23:40:02.822Z,65.91
2023-05-01T23:42:47.562Z,65.93
2023-05-01T23:45:32.617Z,66.92
2023-05-01T23:48:17.772Z,67.49
2023-05-01T23:51:02.757Z,67.32
2023-05-01T23:53:47.821Z,65.81
2023-05-01T23:56:32.869Z,65.63
2023-05-01T23:59:17.850Z,66.29
